Time;durP1;ratioP1;P1;durP2;ratioP2;P2;SDS_P1;SDS_P2;PMS_P1;PMS_P2;Temp;Humidity;BMP_temperature;BMP_pressure;BME280_temperature;BME280_humidity;BME280_pressure;Samples;Min_cycle;Max_cycle;Signal;HPM_P1;HPM_P2
2021/06/25 00:02:05;;;;;;;4.15;2.50;;;;;;;;;;4975758;28;20035;-73
2021/06/25 00:04:31;;;;;;;3.95;2.20;;;;;;;;;;4968616;28;20023;-73
2021/06/25 00:06:56;;;;;;;3.88;2.20;;;;;;;;;;4967057;28;20027;-72
2021/06/25 00:09:21;;;;;;;3.20;1.95;;;;;;;;;;4966071;28;20018;-72
2021/06/25 00:11:47;;;;;;;5.40;2.45;;;;;;;;;;4969163;28;20041;-73
2021/06/25 00:14:12;;;;;;;3.63;2.17;;;;;;;;;;4968860;28;20608;-72
2021/06/25 00:16:38;;;;;;;4.15;2.40;;;;;;;;;;4967913;28;20081;-73
2021/06/25 00:19:04;;;;;;;3.45;1.92;;;;;;;;;;4968001;28;20029;-73
2021/06/25 00:21:29;;;;;;;3.95;2.13;;;;;;;;;;4971159;28;20533;-73
2021/06/25 00:23:54;;;;;;;3.88;2.42;;;;;;;;;;4968494;28;20051;-73
2021/06/25 00:26:20;;;;;;;4.82;2.50;;;;;;;;;;4973975;28;20030;-73
2021/06/25 00:28:45;;;;;;;3.78;2.20;;;;;;;;;;4968274;28;20054;-73
2021/06/25 00:31:10;;;;;;;3.83;2.10;;;;;;;;;;4967728;28;20030;-73
2021/06/25 00:33:36;;;;;;;4.05;2.33;;;;;;;;;;4968056;28;20061;-73
2021/06/25 00:36:01;;;;;;;4.80;2.45;;;;;;;;;;4968089;28;20134;-73
2021/06/25 00:38:27;;;;;;;4.75;2.75;;;;;;;;;;4952718;28;20129;-73
2021/06/25 00:40:53;;;;;;;4.53;2.10;;;;;;;;;;4961735;28;20047;-73
2021/06/25 00:43:18;;;;;;;2.95;1.92;;;;;;;;;;4967734;28;20092;-72
2021/06/25 00:45:44;;;;;;;9.25;2.75;;;;;;;;;;4966041;28;20541;-73
2021/06/25 00:48:09;;;;;;;4.15;2.38;;;;;;;;;;4967419;28;20463;-73
2021/06/25 00:50:36;;;;;;;7.15;2.97;;;;;;;;;;4966767;28;20565;-72
2021/06/25 00:53:03;;;;;;;5.13;2.47;;;;;;;;;;4971538;28;20057;-72
2021/06/25 00:55:41;;;;;;;5.05;2.85;;;;;;;;;;4968237;28;20517;-72
2021/06/25 00:58:07;;;;;;;4.35;2.50;;;;;;;;;;4966724;28;20027;-73
2021/06/25 01:00:32;;;;;;;4.90;2.97;;;;;;;;;;4966796;28;20030;-73
2021/06/25 01:02:57;;;;;;;4.88;2.60;;;;;;;;;;4968302;28;20027;-73
2021/06/25 01:05:23;;;;;;;5.57;2.72;;;;;;;;;;4966255;28;20375;-72
2021/06/25 01:07:48;;;;;;;4.57;2.47;;;;;;;;;;4967160;28;20045;-72
2021/06/25 01:10:14;;;;;;;4.72;2.83;;;;;;;;;;4966879;28;20629;-71
2021/06/25 01:12:43;;;;;;;4.07;2.67;;;;;;;;;;4966945;28;20521;-72
2021/06/25 01:15:09;;;;;;;5.97;3.20;;;;;;;;;;4967309;28;20116;-73
2021/06/25 01:17:42;;;;;;;4.93;2.75;;;;;;;;;;4967866;28;20090;-72
2021/06/25 01:20:10;;;;;;;4.88;2.95;;;;;;;;;;4976146;28;20025;-73
2021/06/25 01:22:39;;;;;;;5.95;3.40;;;;;;;;;;4967023;28;20039;-72
2021/06/25 01:25:06;;;;;;;7.85;3.35;;;;;;;;;;4966939;28;20726;-73
2021/06/25 01:27:32;;;;;;;6.38;3.97;;;;;;;;;;4966334;28;20510;-73
2021/06/25 01:29:59;;;;;;;5.38;3.42;;;;;;;;;;4965646;28;20070;-72
2021/06/25 01:32:24;;;;;;;6.00;4.20;;;;;;;;;;4966951;28;20038;-72
2021/06/25 01:34:50;;;;;;;5.18;3.53;;;;;;;;;;4967190;28;20034;-73
2021/06/25 01:37:16;;;;;;;5.47;3.58;;;;;;;;;;4966969;28;20033;-72
2021/06/25 01:39:42;;;;;;;5.75;3.75;;;;;;;;;;4966322;28;20024;-73
2021/06/25 01:42:07;;;;;;;5.50;3.33;;;;;;;;;;4998862;28;20024;-73
2021/06/25 01:44:35;;;;;;;5.38;3.50;;;;;;;;;;4966154;28;20022;-73
2021/06/25 01:47:02;;;;;;;5.80;3.65;;;;;;;;;;4968906;28;20031;-73
2021/06/25 01:49:28;;;;;;;5.40;3.47;;;;;;;;;;4966838;28;20023;-73
2021/06/25 01:51:53;;;;;;;5.10;3.20;;;;;;;;;;4966540;28;20027;-73
2021/06/25 01:54:18;;;;;;;5.88;3.22;;;;;;;;;;4965918;28;20351;-73
2021/06/25 01:56:44;;;;;;;8.52;3.75;;;;;;;;;;4966226;28;20590;-72
2021/06/25 01:59:09;;;;;;;5.28;3.47;;;;;;;;;;4966101;28;20105;-73
2021/06/25 02:01:35;;;;;;;4.80;3.30;;;;;;;;;;4966611;28;20062;-73
2021/06/25 02:04:00;;;;;;;4.97;3.30;;;;;;;;;;4965462;28;20114;-73
2021/06/25 02:06:26;;;;;;;7.07;3.38;;;;;;;;;;4966372;28;20033;-72
2021/06/25 02:08:51;;;;;;;6.53;3.40;;;;;;;;;;4973499;28;20015;-73
2021/06/25 02:11:18;;;;;;;4.78;2.97;;;;;;;;;;4975904;28;20038;-72
2021/06/25 02:13:43;;;;;;;5.72;2.95;;;;;;;;;;4984742;28;20037;-73
2021/06/25 02:16:09;;;;;;;6.72;3.05;;;;;;;;;;4976304;28;20023;-73
2021/06/25 02:18:34;;;;;;;5.03;3.03;;;;;;;;;;4964836;28;20109;-72
2021/06/25 02:21:00;;;;;;;4.93;2.38;;;;;;;;;;4968791;28;20206;-73
2021/06/25 02:23:25;;;;;;;3.95;2.55;;;;;;;;;;4965391;28;20080;-72
2021/06/25 02:25:51;;;;;;;4.82;2.30;;;;;;;;;;4966463;28;20080;-72
2021/06/25 02:28:16;;;;;;;4.32;2.10;;;;;;;;;;4965472;28;20085;-73
2021/06/25 02:30:42;;;;;;;4.43;2.30;;;;;;;;;;4966159;28;20034;-73
2021/06/25 02:33:07;;;;;;;4.20;2.28;;;;;;;;;;4965790;28;20034;-72
2021/06/25 02:35:33;;;;;;;3.63;2.08;;;;;;;;;;4967129;28;20229;-72
2021/06/25 02:37:58;;;;;;;3.90;2.30;;;;;;;;;;4965759;28;20114;-72
2021/06/25 02:40:24;;;;;;;4.50;2.50;;;;;;;;;;4968950;28;20560;-72
2021/06/25 02:42:49;;;;;;;5.32;2.50;;;;;;;;;;4966266;28;20407;-73
2021/06/25 02:45:15;;;;;;;3.40;2.03;;;;;;;;;;4965748;28;20031;-73
2021/06/25 02:47:41;;;;;;;5.20;2.22;;;;;;;;;;4964866;28;20026;-73
2021/06/25 02:50:08;;;;;;;3.70;2.40;;;;;;;;;;4963934;28;20423;-73
2021/06/25 02:52:34;;;;;;;4.20;2.67;;;;;;;;;;4966561;28;20033;-72
2021/06/25 02:54:59;;;;;;;4.50;3.15;;;;;;;;;;4966295;28;20034;-73
2021/06/25 02:57:25;;;;;;;4.72;3.00;;;;;;;;;;4965582;28;20034;-72
2021/06/25 02:59:50;;;;;;;3.83;2.28;;;;;;;;;;4965743;28;20053;-73
2021/06/25 03:02:15;;;;;;;4.47;2.50;;;;;;;;;;4964646;28;20030;-73
2021/06/25 03:04:41;;;;;;;4.18;2.58;;;;;;;;;;4972263;28;20158;-73
2021/06/25 03:07:06;;;;;;;5.20;3.10;;;;;;;;;;4989487;28;20026;-73
2021/06/25 03:09:31;;;;;;;4.05;2.58;;;;;;;;;;4969188;28;20109;-72
2021/06/25 03:11:57;;;;;;;4.40;2.22;;;;;;;;;;4985091;28;20077;-73
2021/06/25 03:14:23;;;;;;;4.32;2.33;;;;;;;;;;4969747;28;20031;-72
2021/06/25 03:16:48;;;;;;;4.88;3.00;;;;;;;;;;4969496;28;20027;-73
2021/06/25 03:19:13;;;;;;;4.38;2.47;;;;;;;;;;4969838;28;20019;-72
2021/06/25 03:21:39;;;;;;;5.07;2.50;;;;;;;;;;4972097;28;20030;-73
2021/06/25 03:24:05;;;;;;;5.43;2.92;;;;;;;;;;4967975;28;20109;-72
2021/06/25 03:26:30;;;;;;;4.68;2.60;;;;;;;;;;4969388;28;20066;-73
2021/06/25 03:28:56;;;;;;;4.90;2.80;;;;;;;;;;4971493;28;20027;-73
2021/06/25 03:31:22;;;;;;;5.28;2.83;;;;;;;;;;4973255;28;20049;-73
2021/06/25 03:33:48;;;;;;;5.70;2.90;;;;;;;;;;4969111;28;20034;-72
2021/06/25 03:36:13;;;;;;;5.63;3.08;;;;;;;;;;4968314;28;20026;-73
2021/06/25 03:38:39;;;;;;;6.68;3.25;;;;;;;;;;4968790;28;20062;-72
2021/06/25 03:41:04;;;;;;;4.97;2.78;;;;;;;;;;4968517;28;20109;-73
2021/06/25 03:43:29;;;;;;;4.68;2.70;;;;;;;;;;4969521;28;20035;-73
2021/06/25 03:45:55;;;;;;;4.22;2.75;;;;;;;;;;4967601;28;20165;-72
2021/06/25 03:48:20;;;;;;;6.43;3.15;;;;;;;;;;4984380;28;20113;-72
2021/06/25 03:50:46;;;;;;;4.88;3.10;;;;;;;;;;4969224;28;20045;-72
2021/06/25 03:53:11;;;;;;;5.15;2.83;;;;;;;;;;4978800;28;20030;-72
2021/06/25 03:56:09;;;;;;;5.35;2.90;;;;;;;;;;4975628;28;20045;-72
2021/06/25 03:58:22;;;;;;;5.20;2.63;;;;;;;;;;4968373;28;20045;-73
2021/06/25 04:00:47;;;;;;;6.57;3.47;;;;;;;;;;4968141;28;20027;-73
2021/06/25 04:03:12;;;;;;;5.55;2.83;;;;;;;;;;4967412;28;20057;-72
2021/06/25 04:05:38;;;;;;;5.28;3.25;;;;;;;;;;4968834;28;20030;-73
2021/06/25 04:08:03;;;;;;;6.00;3.25;;;;;;;;;;4968450;28;20544;-73
2021/06/25 04:10:28;;;;;;;5.15;3.20;;;;;;;;;;4966810;28;20077;-73
2021/06/25 04:12:54;;;;;;;7.75;2.97;;;;;;;;;;4968675;28;20084;-73
2021/06/25 04:15:19;;;;;;;7.68;4.78;;;;;;;;;;4973649;28;21228;-74
2021/06/25 04:17:45;;;;;;;4.95;2.45;;;;;;;;;;4974173;28;20041;-74
2021/06/25 04:20:11;;;;;;;6.07;2.38;;;;;;;;;;4977225;28;20030;-74
2021/06/25 04:22:36;;;;;;;4.15;2.53;;;;;;;;;;4965071;28;20113;-74
2021/06/25 04:25:02;;;;;;;3.72;2.25;;;;;;;;;;4967160;28;20975;-74
2021/06/25 04:27:28;;;;;;;3.78;2.35;;;;;;;;;;4965340;28;20062;-74
2021/06/25 04:29:53;;;;;;;3.67;2.25;;;;;;;;;;4966062;28;20108;-74
2021/06/25 04:32:20;;;;;;;5.00;2.40;;;;;;;;;;4965442;28;20112;-74
2021/06/25 04:34:46;;;;;;;3.72;1.80;;;;;;;;;;4967918;28;20137;-74
2021/06/25 04:37:13;;;;;;;5.88;1.83;;;;;;;;;;4967837;28;20472;-74
2021/06/25 04:39:38;;;;;;;3.78;1.98;;;;;;;;;;4967867;28;20094;-74
2021/06/25 04:42:04;;;;;;;3.72;1.85;;;;;;;;;;4967079;28;20142;-73
2021/06/25 04:44:30;;;;;;;2.75;1.77;;;;;;;;;;4967981;28;20030;-74
2021/06/25 04:46:55;;;;;;;3.55;2.08;;;;;;;;;;4967259;28;20047;-74
2021/06/25 04:49:20;;;;;;;3.63;2.03;;;;;;;;;;4966668;28;20027;-74
2021/06/25 04:51:46;;;;;;;4.18;2.03;;;;;;;;;;4967476;28;20038;-73
2021/06/25 04:54:11;;;;;;;3.42;1.80;;;;;;;;;;4966302;28;20073;-73
2021/06/25 04:56:36;;;;;;;4.07;2.22;;;;;;;;;;4966984;28;20031;-73
2021/06/25 04:59:02;;;;;;;4.45;1.77;;;;;;;;;;4966038;28;20030;-73
2021/06/25 05:01:27;;;;;;;2.83;1.73;;;;;;;;;;4964897;28;20034;-74
2021/06/25 05:03:52;;;;;;;3.58;2.08;;;;;;;;;;4963223;28;20034;-75
2021/06/25 05:06:17;;;;;;;2.60;1.20;;;;;;;;;;4980368;28;20035;-75
2021/06/25 05:08:43;;;;;;;3.50;1.40;;;;;;;;;;4970763;28;20711;-73
2021/06/25 05:11:08;;;;;;;2.55;1.20;;;;;;;;;;4982946;28;20438;-73
2021/06/25 05:13:34;;;;;;;2.38;1.10;;;;;;;;;;4984863;28;20069;-73
2021/06/25 05:15:59;;;;;;;2.60;1.23;;;;;;;;;;4967416;28;20617;-74
2021/06/25 05:18:25;;;;;;;1.80;0.98;;;;;;;;;;4975480;28;20117;-73
2021/06/25 05:20:51;;;;;;;8.10;4.55;;;;;;;;;;4970102;28;20043;-74
2021/06/25 05:23:18;;;;;;;2.65;1.30;;;;;;;;;;4965417;28;20135;-74
2021/06/25 05:25:44;;;;;;;2.42;1.13;;;;;;;;;;4969059;28;20031;-73
2021/06/25 05:28:10;;;;;;;1.65;0.95;;;;;;;;;;4974484;28;20022;-74
2021/06/25 05:30:37;;;;;;;2.47;1.35;;;;;;;;;;4969192;28;20049;-73
2021/06/25 05:33:03;;;;;;;2.55;1.30;;;;;;;;;;4974113;28;20454;-73
2021/06/25 05:35:31;;;;;;;2.75;1.20;;;;;;;;;;4968562;28;20138;-74
2021/06/25 05:38:05;;;;;;;3.05;1.48;;;;;;;;;;4966960;28;20185;-74
2021/06/25 05:40:31;;;;;;;2.65;1.45;;;;;;;;;;4980205;28;20030;-74
2021/06/25 05:42:56;;;;;;;2.83;1.58;;;;;;;;;;4964154;28;20030;-74
2021/06/25 05:45:23;;;;;;;2.15;1.30;;;;;;;;;;4975713;28;20477;-74
2021/06/25 05:47:48;;;;;;;2.85;1.50;;;;;;;;;;4964234;28;20405;-73
2021/06/25 05:50:15;;;;;;;3.03;1.70;;;;;;;;;;4966582;28;20026;-73
2021/06/25 05:52:41;;;;;;;3.50;1.65;;;;;;;;;;4964072;28;20285;-73
2021/06/25 05:55:07;;;;;;;4.15;1.92;;;;;;;;;;4963967;28;20815;-74
2021/06/25 05:57:32;;;;;;;3.47;1.70;;;;;;;;;;4964079;28;20054;-74
2021/06/25 05:59:57;;;;;;;3.95;1.83;;;;;;;;;;4976960;28;20027;-76
2021/06/25 06:02:23;;;;;;;3.67;1.58;;;;;;;;;;4963489;28;20390;-74
2021/06/25 06:04:48;;;;;;;4.45;1.73;;;;;;;;;;4963215;28;20077;-74
2021/06/25 06:07:14;;;;;;;3.83;1.95;;;;;;;;;;4960672;28;20027;-75
2021/06/25 06:09:39;;;;;;;3.38;1.70;;;;;;;;;;4951496;28;20034;-74
2021/06/25 06:12:05;;;;;;;3.10;1.67;;;;;;;;;;4963047;28;20073;-75
2021/06/25 06:14:30;;;;;;;3.55;1.80;;;;;;;;;;4970351;28;20022;-74
2021/06/25 06:16:56;;;;;;;4.38;1.70;;;;;;;;;;4964848;28;20096;-74
2021/06/25 06:19:21;;;;;;;2.67;1.33;;;;;;;;;;4964166;28;20070;-74
2021/06/25 06:33:08;;;;;;;5.00;2.35;;;;;;;;;;4946796;29;20070;-75
2021/06/25 06:35:28;;;;;;;4.75;2.80;;;;;;;;;;4946984;28;20078;-75
2021/06/25 06:38:00;;;;;;;6.32;3.72;;;;;;;;;;4951818;28;20294;-75
2021/06/25 06:40:26;;;;;;;5.70;2.92;;;;;;;;;;4965467;28;20956;-75
2021/06/25 06:42:51;;;;;;;4.97;2.83;;;;;;;;;;4966006;28;20034;-75
2021/06/25 06:45:17;;;;;;;6.07;3.05;;;;;;;;;;4966299;28;20477;-75
2021/06/25 06:47:43;;;;;;;7.38;3.60;;;;;;;;;;4965163;28;20556;-75
2021/06/25 06:50:10;;;;;;;7.70;4.18;;;;;;;;;;4963252;28;20050;-74
2021/06/25 06:52:35;;;;;;;7.82;4.22;;;;;;;;;;4964051;28;20034;-75
2021/06/25 06:55:00;;;;;;;6.22;3.80;;;;;;;;;;5002705;28;20030;-75
2021/06/25 06:57:26;;;;;;;7.78;4.10;;;;;;;;;;4981951;28;20046;-75
2021/06/25 06:59:51;;;;;;;7.38;4.68;;;;;;;;;;4963162;28;20030;-74
2021/06/25 07:02:16;;;;;;;5.75;3.45;;;;;;;;;;4963316;28;20037;-74
2021/06/25 07:04:42;;;;;;;5.22;3.13;;;;;;;;;;4969750;28;20674;-75
2021/06/25 07:07:07;;;;;;;5.68;3.53;;;;;;;;;;4969536;28;20027;-75
2021/06/25 07:09:32;;;;;;;7.18;4.18;;;;;;;;;;4962036;28;20030;-75
2021/06/25 07:11:58;;;;;;;6.43;3.97;;;;;;;;;;4977001;28;20030;-74
2021/06/25 07:14:23;;;;;;;7.65;3.72;;;;;;;;;;4976611;28;20111;-75
2021/06/25 07:16:48;;;;;;;5.90;3.33;;;;;;;;;;4963643;28;20034;-75
2021/06/25 07:19:15;;;;;;;5.70;3.15;;;;;;;;;;4978418;28;20029;-75
2021/06/25 07:21:40;;;;;;;5.97;3.28;;;;;;;;;;4963072;28;20018;-74
2021/06/25 07:24:06;;;;;;;5.30;2.35;;;;;;;;;;4966041;28;20402;-74
2021/06/25 07:26:32;;;;;;;3.70;2.08;;;;;;;;;;4964144;28;20099;-75
2021/06/25 07:28:57;;;;;;;3.72;2.03;;;;;;;;;;4963624;28;20030;-74
2021/06/25 07:31:23;;;;;;;4.00;1.90;;;;;;;;;;4965915;28;20034;-74
2021/06/25 07:33:49;;;;;;;2.78;1.50;;;;;;;;;;4996727;28;20406;-74
2021/06/25 07:36:16;;;;;;;3.00;1.83;;;;;;;;;;4965682;28;20125;-74
2021/06/25 07:38:41;;;;;;;2.10;1.13;;;;;;;;;;4965537;28;20033;-73
2021/06/25 07:41:06;;;;;;;2.22;1.27;;;;;;;;;;4996974;28;20031;-73
2021/06/25 07:43:32;;;;;;;2.75;1.60;;;;;;;;;;4965032;28;20022;-73
2021/06/25 07:45:57;;;;;;;2.20;1.35;;;;;;;;;;4964756;28;20026;-73
2021/06/25 07:48:22;;;;;;;2.25;1.30;;;;;;;;;;4977017;28;20027;-73
2021/06/25 07:50:48;;;;;;;2.47;1.30;;;;;;;;;;4958021;28;20110;-73
2021/06/25 07:53:13;;;;;;;1.83;0.93;;;;;;;;;;4951222;28;20023;-73
2021/06/25 07:55:45;;;;;;;1.30;0.80;;;;;;;;;;4998143;28;20050;-73
2021/06/25 07:58:12;;;;;;;2.42;1.00;;;;;;;;;;4977866;28;20026;-73
2021/06/25 08:00:38;;;;;;;1.52;0.88;;;;;;;;;;4967443;28;20532;-72
2021/06/25 08:03:04;;;;;;;3.38;1.10;;;;;;;;;;4983497;28;20022;-73
2021/06/25 08:05:29;;;;;;;2.70;1.52;;;;;;;;;;4964541;28;20591;-73
2021/06/25 08:07:54;;;;;;;1.15;0.88;;;;;;;;;;4965520;28;20489;-73
2021/06/25 08:10:20;;;;;;;1.38;0.73;;;;;;;;;;4978944;28;20684;-73
2021/06/25 08:12:45;;;;;;;2.33;0.93;;;;;;;;;;4964563;28;20269;-73
2021/06/25 08:15:11;;;;;;;2.10;1.00;;;;;;;;;;4964949;28;20321;-73
2021/06/25 08:17:37;;;;;;;2.25;1.10;;;;;;;;;;4974670;28;20042;-72
2021/06/25 08:20:04;;;;;;;2.70;1.20;;;;;;;;;;4962308;28;20035;-73
2021/06/25 08:22:30;;;;;;;2.53;1.25;;;;;;;;;;4966925;28;20031;-73
2021/06/25 08:24:55;;;;;;;4.63;1.45;;;;;;;;;;4965614;28;20058;-73
2021/06/25 08:27:20;;;;;;;3.35;1.63;;;;;;;;;;4969645;28;20158;-74
2021/06/25 08:29:46;;;;;;;3.15;1.80;;;;;;;;;;4973499;28;20026;-74
2021/06/25 08:32:12;;;;;;;3.55;1.98;;;;;;;;;;4966925;28;20031;-73
2021/06/25 08:34:37;;;;;;;3.40;1.90;;;;;;;;;;4968292;28;20031;-73
2021/06/25 08:37:03;;;;;;;2.25;1.40;;;;;;;;;;4968199;28;20038;-74
2021/06/25 08:39:30;;;;;;;2.67;1.55;;;;;;;;;;4967822;28;20223;-73
2021/06/25 08:41:55;;;;;;;2.78;1.50;;;;;;;;;;4996953;28;20804;-74
2021/06/25 08:44:21;;;;;;;3.50;1.77;;;;;;;;;;4966348;28;20050;-73
2021/06/25 08:46:47;;;;;;;4.15;2.15;;;;;;;;;;4965125;28;20031;-73
2021/06/25 08:49:17;;;;;;;4.38;2.00;;;;;;;;;;4967934;28;20457;-72
2021/06/25 08:51:44;;;;;;;4.88;2.45;;;;;;;;;;4967700;28;20030;-73
2021/06/25 08:54:10;;;;;;;4.18;2.53;;;;;;;;;;4982509;28;20042;-74
2021/06/25 08:56:35;;;;;;;4.80;2.60;;;;;;;;;;4966505;28;20031;-74
2021/06/25 08:59:02;;;;;;;4.35;2.35;;;;;;;;;;4982986;28;20441;-73
2021/06/25 09:01:37;;;;;;;3.88;2.63;;;;;;;;;;4979084;28;20485;-74
2021/06/25 09:04:04;;;;;;;5.63;2.90;;;;;;;;;;4967671;28;20037;-73
2021/06/25 09:06:32;;;;;;;5.55;2.90;;;;;;;;;;4967637;28;20041;-73
2021/06/25 09:09:15;;;;;;;5.15;2.95;;;;;;;;;;4968922;28;20505;-73
2021/06/25 09:11:42;;;;;;;4.90;3.05;;;;;;;;;;4961866;28;20081;-73
2021/06/25 09:14:08;;;;;;;7.60;3.67;;;;;;;;;;4969271;28;20030;-73
2021/06/25 09:16:36;;;;;;;5.20;3.50;;;;;;;;;;4972496;28;20035;-73
2021/06/25 09:19:03;;;;;;;5.88;3.35;;;;;;;;;;4982216;28;20054;-73
2021/06/25 09:21:39;;;;;;;5.55;3.25;;;;;;;;;;4969893;28;20105;-73
2021/06/25 09:24:21;;;;;;;5.53;3.50;;;;;;;;;;4957104;28;20053;-73
2021/06/25 09:26:48;;;;;;;7.32;3.75;;;;;;;;;;4957918;28;20093;-73
2021/06/25 09:29:22;;;;;;;6.80;3.67;;;;;;;;;;4995854;28;20031;-73
2021/06/25 09:31:59;;;;;;;5.53;3.47;;;;;;;;;;4965400;28;20058;-72
2021/06/25 09:34:40;;;;;;;6.35;3.95;;;;;;;;;;4968601;28;20045;-71
2021/06/25 09:37:09;;;;;;;6.85;3.17;;;;;;;;;;4958156;28;20350;-72
2021/06/25 09:39:34;;;;;;;5.60;3.35;;;;;;;;;;4964289;28;20031;-71
2021/06/25 09:42:00;;;;;;;6.05;3.65;;;;;;;;;;4966510;28;20022;-73
2021/06/25 09:44:25;;;;;;;6.10;3.67;;;;;;;;;;4963468;28;20206;-72
2021/06/25 09:46:53;;;;;;;5.65;3.25;;;;;;;;;;4958194;28;20502;-71
2021/06/25 09:49:26;;;;;;;5.53;3.13;;;;;;;;;;4960157;28;20035;-72
2021/06/25 09:51:53;;;;;;;6.28;3.67;;;;;;;;;;4958054;28;20117;-74
2021/06/25 09:54:18;;;;;;;7.68;3.58;;;;;;;;;;4961121;28;20077;-73
2021/06/25 09:59:25;;;;;;;6.18;3.70;;;;;;;;;;4963751;28;20037;-72
2021/06/25 10:01:50;;;;;;;6.80;3.67;;;;;;;;;;4975856;28;20466;-71
2021/06/25 10:04:16;;;;;;;7.47;4.25;;;;;;;;;;4964025;28;20121;-73
2021/06/25 10:06:41;;;;;;;8.00;4.50;;;;;;;;;;4964634;28;20022;-72
2021/06/25 10:09:07;;;;;;;7.13;4.13;;;;;;;;;;4964130;28;20018;-72
2021/06/25 10:11:33;;;;;;;8.68;5.05;;;;;;;;;;4964440;28;20066;-73
2021/06/25 10:14:01;;;;;;;8.75;5.25;;;;;;;;;;4962451;28;20084;-74
2021/06/25 10:16:27;;;;;;;8.80;5.53;;;;;;;;;;4981789;28;20031;-73
2021/06/25 10:18:54;;;;;;;9.00;5.53;;;;;;;;;;4963153;28;20085;-72
2021/06/25 10:21:24;;;;;;;9.10;5.25;;;;;;;;;;4963489;28;20030;-73
2021/06/25 10:24:00;;;;;;;10.32;6.00;;;;;;;;;;4963406;28;20803;-72
2021/06/25 10:26:26;;;;;;;10.52;5.68;;;;;;;;;;4978732;28;20030;-73
2021/06/25 10:28:54;;;;;;;9.90;5.72;;;;;;;;;;4963594;28;20045;-73
2021/06/25 10:31:22;;;;;;;10.02;6.05;;;;;;;;;;4963817;28;20150;-74
2021/06/25 10:33:49;;;;;;;10.38;6.50;;;;;;;;;;4964115;28;20027;-72
2021/06/25 10:36:16;;;;;;;10.70;6.22;;;;;;;;;;4958736;28;20077;-73
2021/06/25 10:38:43;;;;;;;12.30;7.18;;;;;;;;;;4963335;28;20019;-73
2021/06/25 10:41:11;;;;;;;11.52;7.07;;;;;;;;;;4964539;28;20839;-72
2021/06/25 10:43:39;;;;;;;10.85;6.63;;;;;;;;;;4962268;28;20565;-74
2021/06/25 10:46:04;;;;;;;10.40;6.38;;;;;;;;;;4963416;28;20066;-74
2021/06/25 10:48:40;;;;;;;9.65;6.03;;;;;;;;;;4959508;28;20186;-75
2021/06/25 10:51:22;;;;;;;11.02;6.05;;;;;;;;;;4962266;28;20046;-73
2021/06/25 10:54:15;;;;;;;7.70;4.95;;;;;;;;;;4962935;28;20386;-72
2021/06/25 10:56:50;;;;;;;8.10;5.28;;;;;;;;;;4952051;28;20026;-72
2021/06/25 10:59:43;;;;;;;6.40;4.47;;;;;;;;;;4962735;28;20027;-73
2021/06/25 11:02:08;;;;;;;8.10;4.35;;;;;;;;;;4962015;28;20501;-73
2021/06/25 11:04:36;;;;;;;6.80;4.38;;;;;;;;;;4962402;28;20030;-72
2021/06/25 11:07:07;;;;;;;8.75;4.38;;;;;;;;;;4960709;28;20081;-72
2021/06/25 11:09:57;;;;;;;6.75;3.42;;;;;;;;;;4958994;28;20037;-73
2021/06/25 11:12:24;;;;;;;5.68;3.15;;;;;;;;;;4960437;28;20033;-73
2021/06/25 11:14:50;;;;;;;4.70;2.50;;;;;;;;;;4958136;28;20026;-72
2021/06/25 11:17:44;;;;;;;4.40;2.55;;;;;;;;;;4948690;28;20490;-72
2021/06/25 11:20:28;;;;;;;5.18;3.40;;;;;;;;;;4974645;28;20118;-72
2021/06/25 11:22:58;;;;;;;5.35;3.28;;;;;;;;;;4978438;28;20030;-71
2021/06/25 11:25:38;;;;;;;6.63;3.50;;;;;;;;;;4965434;28;20062;-71
2021/06/25 11:28:38;;;;;;;4.63;2.60;;;;;;;;;;4966218;28;20035;-71
2021/06/25 11:31:05;;;;;;;5.32;2.70;;;;;;;;;;4964947;28;20031;-71
2021/06/25 11:33:53;;;;;;;4.88;2.75;;;;;;;;;;4978056;28;20361;-72
2021/06/25 11:36:28;;;;;;;4.78;2.53;;;;;;;;;;4967056;28;20081;-71
2021/06/25 11:38:56;;;;;;;4.72;2.70;;;;;;;;;;4975811;28;20035;-71
2021/06/25 11:41:26;;;;;;;4.57;2.83;;;;;;;;;;4966964;28;20027;-71
2021/06/25 11:43:56;;;;;;;5.63;2.97;;;;;;;;;;4958138;28;20086;-72
2021/06/25 11:46:21;;;;;;;5.40;2.30;;;;;;;;;;4953883;28;20026;-71
2021/06/25 11:48:47;;;;;;;4.00;2.58;;;;;;;;;;4966150;28;20054;-73
2021/06/25 11:51:14;;;;;;;5.43;2.47;;;;;;;;;;4968265;28;20433;-74
2021/06/25 11:53:42;;;;;;;4.65;2.28;;;;;;;;;;4964669;28;20037;-74
2021/06/25 11:56:17;;;;;;;4.70;2.70;;;;;;;;;;4966487;28;20141;-72
2021/06/25 11:58:55;;;;;;;4.78;2.85;;;;;;;;;;4956566;28;20091;-70
2021/06/25 12:01:21;;;;;;;5.00;2.90;;;;;;;;;;4965937;28;20031;-72
2021/06/25 12:03:46;;;;;;;5.57;3.22;;;;;;;;;;4965196;28;20722;-73
2021/06/25 12:06:12;;;;;;;4.90;3.05;;;;;;;;;;4966331;28;20030;-72
2021/06/25 12:08:57;;;;;;;5.07;2.97;;;;;;;;;;4965773;28;20055;-72
2021/06/25 12:11:24;;;;;;;5.88;3.17;;;;;;;;;;4965777;28;20039;-71
2021/06/25 12:14:04;;;;;;;6.57;3.53;;;;;;;;;;4968798;28;20067;-71
2021/06/25 12:16:31;;;;;;;5.78;3.47;;;;;;;;;;4966921;28;20026;-73
2021/06/25 12:18:57;;;;;;;5.53;3.13;;;;;;;;;;4965742;28;20022;-72
2021/06/25 12:21:23;;;;;;;5.03;2.90;;;;;;;;;;4965892;28;20038;-72
2021/06/25 12:23:55;;;;;;;5.15;2.90;;;;;;;;;;4964919;28;20019;-72
2021/06/25 12:26:22;;;;;;;4.85;2.92;;;;;;;;;;4970981;28;20058;-72
2021/06/25 12:28:50;;;;;;;5.60;3.25;;;;;;;;;;4965031;28;20081;-72
2021/06/25 12:31:22;;;;;;;5.40;2.83;;;;;;;;;;4980967;28;20026;-72
2021/06/25 12:33:49;;;;;;;6.18;3.53;;;;;;;;;;4965966;28;20033;-73
2021/06/25 12:36:16;;;;;;;7.88;4.38;;;;;;;;;;4965790;28;20027;-73
2021/06/25 12:38:43;;;;;;;7.43;4.47;;;;;;;;;;4963667;28;20033;-73
2021/06/25 12:41:10;;;;;;;8.63;5.20;;;;;;;;;;4964831;28;20023;-73
2021/06/25 12:43:54;;;;;;;7.35;4.57;;;;;;;;;;4966096;28;20027;-73
2021/06/25 12:46:21;;;;;;;7.72;4.60;;;;;;;;;;4965545;28;20026;-73
2021/06/25 12:48:55;;;;;;;7.35;4.45;;;;;;;;;;4964653;28;20111;-73
2021/06/25 12:51:23;;;;;;;7.72;4.57;;;;;;;;;;4964060;28;20019;-73
2021/06/25 12:53:50;;;;;;;8.23;5.18;;;;;;;;;;4964741;28;20030;-72
2021/06/25 12:56:22;;;;;;;8.40;5.25;;;;;;;;;;4965265;28;20030;-72
2021/06/25 12:58:50;;;;;;;7.72;4.55;;;;;;;;;;4961643;28;20061;-72
2021/06/25 13:01:16;;;;;;;7.95;4.13;;;;;;;;;;4963068;28;20122;-72
2021/06/25 13:03:46;;;;;;;7.85;4.40;;;;;;;;;;4964957;28;20027;-72
2021/06/25 13:06:37;;;;;;;6.55;3.40;;;;;;;;;;4960712;28;20027;-73
2021/06/25 13:09:18;;;;;;;;;;;;;;;;;;4964157;28;20051;-72
2021/06/25 13:11:44;;;;;;;4.97;3.60;;;;;;;;;;4962927;28;19914;-73
2021/06/25 13:14:09;;;;;;;5.53;3.55;;;;;;;;;;4965223;28;20034;-73
2021/06/25 13:16:38;;;;;;;4.95;3.20;;;;;;;;;;4965377;28;20027;-73
2021/06/25 13:19:08;;;;;;;6.28;4.10;;;;;;;;;;4962036;28;20061;-72
2021/06/25 13:21:56;;;;;;;5.82;3.58;;;;;;;;;;4965278;28;20030;-73
2021/06/25 13:24:38;;;;;;;7.63;3.30;;;;;;;;;;4964515;28;20058;-72
2021/06/25 13:27:07;;;;;;;5.28;3.65;;;;;;;;;;4966342;28;20078;-72
2021/06/25 13:29:47;;;;;;;4.25;2.80;;;;;;;;;;4964404;28;20027;-72
2021/06/25 13:32:14;;;;;;;6.10;3.55;;;;;;;;;;4966144;28;20117;-72
2021/06/25 13:34:59;;;;;;;5.75;3.55;;;;;;;;;;4966897;28;20061;-73
2021/06/25 13:37:38;;;;;;;5.22;3.50;;;;;;;;;;4971701;28;20401;-73
2021/06/25 13:40:04;;;;;;;5.43;3.33;;;;;;;;;;4967028;28;20077;-73
2021/06/25 13:42:29;;;;;;;6.35;3.08;;;;;;;;;;4962734;28;20025;-72
2021/06/25 13:45:13;;;;;;;4.85;3.05;;;;;;;;;;4961948;28;20433;-77
2021/06/25 13:47:38;;;;;;;4.50;2.70;;;;;;;;;;4962831;28;20414;-75
2021/06/25 13:50:07;;;;;;;3.95;2.40;;;;;;;;;;4962362;28;20019;-74
2021/06/25 13:52:32;;;;;;;5.22;2.70;;;;;;;;;;4962533;28;20040;-74
2021/06/25 13:55:16;;;;;;;4.45;2.75;;;;;;;;;;4964011;28;20026;-74
2021/06/25 13:58:04;;;;;;;4.57;2.85;;;;;;;;;;4963987;28;20031;-73
2021/06/25 14:00:36;;;;;;;4.63;2.67;;;;;;;;;;4965090;28;20029;-73
2021/06/25 14:03:05;;;;;;;4.50;2.65;;;;;;;;;;4963637;28;20038;-70
2021/06/25 14:05:31;;;;;;;4.57;3.35;;;;;;;;;;4978466;28;20031;-70
2021/06/25 14:08:05;;;;;;;4.40;2.67;;;;;;;;;;4975645;28;20041;-71
2021/06/25 14:10:31;;;;;;;4.22;2.63;;;;;;;;;;4963936;28;20116;-71
2021/06/25 14:12:58;;;;;;;4.63;2.75;;;;;;;;;;4963712;28;20062;-71
2021/06/25 14:15:50;;;;;;;5.00;2.78;;;;;;;;;;4962282;28;20077;-71
2021/06/25 14:18:18;;;;;;;7.00;2.92;;;;;;;;;;4951736;28;20108;-74
2021/06/25 14:20:44;;;;;;;4.90;2.67;;;;;;;;;;4966981;28;20030;-71
2021/06/25 14:23:09;;;;;;;4.80;2.70;;;;;;;;;;4960710;28;20022;-72
2021/06/25 14:25:35;;;;;;;5.30;2.80;;;;;;;;;;4962391;28;20105;-72
2021/06/25 14:28:01;;;;;;;4.63;2.72;;;;;;;;;;4961571;28;20109;-72
2021/06/25 14:30:26;;;;;;;5.13;2.55;;;;;;;;;;4965706;28;20129;-72
2021/06/25 14:32:55;;;;;;;4.82;2.67;;;;;;;;;;4965224;28;20458;-71
2021/06/25 14:35:21;;;;;;;4.43;2.60;;;;;;;;;;4965609;28;20029;-72
2021/06/25 14:37:46;;;;;;;5.28;3.08;;;;;;;;;;4966881;28;20034;-72
2021/06/25 14:40:13;;;;;;;5.57;2.78;;;;;;;;;;4965686;28;20027;-72
2021/06/25 14:42:39;;;;;;;4.28;2.65;;;;;;;;;;4959034;28;20092;-71
2021/06/25 14:45:07;;;;;;;4.93;2.63;;;;;;;;;;4957453;28;20044;-71
2021/06/25 14:47:33;;;;;;;4.80;2.97;;;;;;;;;;4961704;28;20035;-72
2021/06/25 14:49:58;;;;;;;5.00;3.00;;;;;;;;;;4964109;28;20029;-69
2021/06/25 14:52:24;;;;;;;5.68;3.17;;;;;;;;;;4975124;28;20027;-70
2021/06/25 14:54:49;;;;;;;4.18;2.78;;;;;;;;;;4957269;28;20054;-72
2021/06/25 14:57:14;;;;;;;4.57;2.83;;;;;;;;;;4963908;28;20433;-70
2021/06/25 14:59:40;;;;;;;4.97;2.63;;;;;;;;;;4963713;28;20027;-70
2021/06/25 15:02:05;;;;;;;4.13;2.90;;;;;;;;;;4963093;28;20663;-69